Time;durP1;ratioP1;P1;durP2;ratioP2;P2;SDS_P1;SDS_P2;PMS_P1;PMS_P2;Temp;Humidity;BMP_temperature;BMP_pressure;BME280_temperature;BME280_humidity;BME280_pressure;Samples;Min_cycle;Max_cycle;Signal;HPM_P1;HPM_P2
2023/08/04 00:00:22;;;;;;;3.33;1.77;;;22.20;99.90;;;;;;5106492;27;45184;-61
2023/08/04 00:02:49;;;;;;;2.45;1.95;;;22.20;99.90;;;;;;5109025;27;45235;-61
2023/08/04 00:05:15;;;;;;;4.00;1.80;;;22.20;99.90;;;;;;5106745;27;45140;-61
2023/08/04 00:07:43;;;;;;;2.70;1.83;;;22.20;99.90;;;;;;5104550;27;45390;-60
2023/08/04 00:10:11;;;;;;;3.00;1.90;;;22.20;99.90;;;;;;5104629;27;45382;-61
2023/08/04 00:12:39;;;;;;;3.22;2.00;;;22.20;99.90;;;;;;5102609;27;45280;-61
2023/08/04 00:15:07;;;;;;;1.80;1.40;;;22.20;99.90;;;;;;5103782;27;45261;-61
2023/08/04 00:17:37;;;;;;;3.83;2.08;;;22.20;99.90;;;;;;5101466;27;46516;-61
2023/08/04 00:20:08;;;;;;;3.15;1.70;;;22.30;99.90;;;;;;5104953;27;45320;-61
2023/08/04 00:22:34;;;;;;;2.80;2.00;;;22.20;99.90;;;;;;5102123;27;45377;-61
2023/08/04 00:25:01;;;;;;;2.90;1.60;;;22.30;99.90;;;;;;5098989;27;45520;-61
2023/08/04 00:27:28;;;;;;;4.28;1.70;;;22.20;99.90;;;;;;5103568;27;47969;-61
2023/08/04 00:29:56;;;;;;;4.55;2.10;;;22.30;99.90;;;;;;5102930;27;45242;-61
2023/08/04 00:32:23;;;;;;;5.38;1.88;;;22.30;99.90;;;;;;5100423;27;45193;-61
2023/08/04 00:34:49;;;;;;;2.08;1.23;;;22.30;99.90;;;;;;5102012;27;45217;-61
2023/08/04 00:37:16;;;;;;;2.20;1.50;;;22.30;99.90;;;;;;5106553;27;47330;-61
2023/08/04 00:39:43;;;;;;;3.38;1.83;;;22.30;99.90;;;;;;5100833;27;45299;-61
2023/08/04 00:42:10;;;;;;;2.00;1.67;;;22.30;99.90;;;;;;5103906;27;45244;-61
2023/08/04 00:44:36;;;;;;;4.90;2.08;;;22.30;99.90;;;;;;5103775;27;45358;-61
2023/08/04 00:47:05;;;;;;;2.47;1.60;;;22.20;99.90;;;;;;5102814;27;47301;-61
2023/08/04 00:49:33;;;;;;;2.20;1.38;;;22.20;99.90;;;;;;5102442;27;45109;-61
2023/08/04 00:52:00;;;;;;;1.75;1.48;;;22.30;99.90;;;;;;5105440;27;45169;-61
2023/08/04 00:54:27;;;;;;;2.90;1.52;;;22.20;99.90;;;;;;5104218;27;45109;-61
2023/08/04 00:56:54;;;;;;;2.75;1.58;;;22.20;99.90;;;;;;5103040;27;45153;-61
2023/08/04 00:59:21;;;;;;;2.45;1.50;;;22.20;99.90;;;;;;5101322;27;45224;-60
2023/08/04 01:01:49;;;;;;;2.97;1.38;;;22.20;99.90;;;;;;5103369;27;45157;-61
2023/08/04 01:04:18;;;;;;;2.28;1.52;;;22.20;99.90;;;;;;5107218;27;45280;-61
2023/08/04 01:06:56;;;;;;;2.15;1.23;;;22.20;99.90;;;;;;5100861;27;46036;-61
2023/08/04 01:09:30;;;;;;;2.03;1.20;;;22.30;99.90;;;;;;5104253;27;45190;-62
2023/08/04 01:12:06;;;;;;;2.00;1.13;;;22.30;99.90;;;;;;5107399;27;45200;-61
2023/08/04 01:14:35;;;;;;;1.30;1.08;;;22.20;99.90;;;;;;5105461;27;45078;-62
2023/08/04 01:17:03;;;;;;;1.73;1.23;;;22.30;99.90;;;;;;5103162;27;46036;-62
2023/08/04 01:19:31;;;;;;;2.58;1.30;;;22.30;99.90;;;;;;5102880;27;45419;-61
2023/08/04 01:22:00;;;;;;;2.85;1.45;;;22.30;99.90;;;;;;5107339;27;45147;-62
2023/08/04 01:24:26;;;;;;;3.05;1.48;;;22.20;99.90;;;;;;5103385;27;45255;-61
2023/08/04 01:26:56;;;;;;;1.98;1.20;;;22.30;99.90;;;;;;5103250;27;45377;-62
2023/08/04 01:29:24;;;;;;;1.80;1.20;;;22.30;99.90;;;;;;5102264;27;45054;-62
2023/08/04 01:31:52;;;;;;;2.00;1.02;;;22.30;99.90;;;;;;5106851;27;45273;-61
2023/08/04 01:34:19;;;;;;;1.48;1.10;;;22.30;99.90;;;;;;5102540;27;45417;-61
2023/08/04 01:36:46;;;;;;;2.05;1.10;;;22.30;99.90;;;;;;5102276;27;47329;-61
2023/08/04 01:39:14;;;;;;;1.85;1.17;;;22.30;99.90;;;;;;5107381;27;46190;-62
2023/08/04 01:41:41;;;;;;;1.85;1.08;;;22.30;99.90;;;;;;5102099;27;45113;-61
2023/08/04 01:44:08;;;;;;;2.33;1.00;;;22.30;99.90;;;;;;5101598;27;45223;-61
2023/08/04 01:46:35;;;;;;;1.90;1.00;;;22.30;99.90;;;;;;5104961;27;45174;-61
2023/08/04 01:49:01;;;;;;;1.40;1.10;;;22.30;99.90;;;;;;5101148;27;45115;-61
2023/08/04 01:51:28;;;;;;;3.60;1.13;;;22.30;99.90;;;;;;5102243;27;45391;-59
2023/08/04 01:53:55;;;;;;;3.13;1.00;;;22.30;99.90;;;;;;5104740;27;45447;-61
2023/08/04 01:56:23;;;;;;;2.00;1.20;;;22.30;99.90;;;;;;5103492;27;45472;-61
2023/08/04 01:58:52;;;;;;;2.95;1.10;;;22.30;99.90;;;;;;5106262;27;45228;-60
2023/08/04 02:01:18;;;;;;;4.63;1.30;;;22.30;99.90;;;;;;5100944;27;45200;-61
2023/08/04 02:03:45;;;;;;;2.85;1.33;;;22.30;99.90;;;;;;5098179;27;45152;-60
2023/08/04 02:06:12;;;;;;;2.75;1.10;;;22.30;99.90;;;;;;5105371;27;46247;-61
2023/08/04 02:08:39;;;;;;;1.42;1.20;;;22.30;99.90;;;;;;5101998;27;45170;-60
2023/08/04 02:11:05;;;;;;;2.05;1.15;;;22.30;99.90;;;;;;5100500;27;45173;-61
2023/08/04 02:13:34;;;;;;;3.17;1.30;;;22.30;99.90;;;;;;5104631;27;45249;-61
2023/08/04 02:16:00;;;;;;;2.58;1.13;;;22.30;99.90;;;;;;5099591;27;47554;-60
2023/08/04 02:18:27;;;;;;;3.00;1.30;;;22.30;99.90;;;;;;5100391;27;45674;-61
2023/08/04 02:20:54;;;;;;;2.42;0.90;;;22.30;99.90;;;;;;5097450;27;45316;-62
2023/08/04 02:23:21;;;;;;;2.90;1.10;;;22.20;99.90;;;;;;5100862;27;45482;-61
2023/08/04 02:25:48;;;;;;;2.35;1.35;;;22.20;99.90;;;;;;5104883;27;46430;-62
2023/08/04 02:28:14;;;;;;;2.92;1.38;;;22.20;99.90;;;;;;5100220;27;45193;-60
2023/08/04 02:30:42;;;;;;;1.73;1.10;;;22.20;99.90;;;;;;5103760;27;45148;-60
2023/08/04 02:33:09;;;;;;;1.45;1.00;;;22.30;99.90;;;;;;5102981;27;45157;-60
2023/08/04 02:35:36;;;;;;;1.42;1.02;;;22.20;99.90;;;;;;5101061;27;45239;-60
2023/08/04 02:38:03;;;;;;;1.38;0.90;;;22.20;99.90;;;;;;5099203;27;45478;-61
2023/08/04 02:40:30;;;;;;;1.85;1.10;;;22.30;99.90;;;;;;5101113;27;45435;-61
2023/08/04 02:42:56;;;;;;;1.45;1.00;;;22.20;99.90;;;;;;5104326;27;45370;-61
2023/08/04 02:45:23;;;;;;;2.75;1.33;;;22.20;99.90;;;;;;5100910;27;47979;-60
2023/08/04 02:47:51;;;;;;;3.00;1.38;;;22.30;99.90;;;;;;5105505;27;45334;-61
2023/08/04 02:50:18;;;;;;;3.00;1.20;;;22.30;99.90;;;;;;5101306;27;45136;-61
2023/08/04 02:52:45;;;;;;;2.10;1.25;;;22.30;99.90;;;;;;5101533;27;45476;-60
2023/08/04 02:55:12;;;;;;;1.33;0.90;;;22.30;99.90;;;;;;5104969;27;46032;-61
2023/08/04 02:57:39;;;;;;;1.42;1.10;;;22.30;99.90;;;;;;5100438;27;45337;-61
2023/08/04 03:00:07;;;;;;;2.42;1.20;;;22.30;99.90;;;;;;5100929;27;45194;-61
2023/08/04 03:02:34;;;;;;;1.77;1.17;;;22.30;99.90;;;;;;5103129;27;45074;-61
2023/08/04 03:05:02;;;;;;;3.03;1.25;;;22.30;99.90;;;;;;5103549;27;48387;-61
2023/08/04 03:07:29;;;;;;;2.25;1.20;;;22.30;99.90;;;;;;5102173;27;45308;-61
2023/08/04 03:09:56;;;;;;;2.65;1.10;;;22.30;99.90;;;;;;5101593;27;45235;-61
2023/08/04 03:12:22;;;;;;;1.92;1.13;;;22.30;99.90;;;;;;5101079;27;45272;-62
2023/08/04 03:14:49;;;;;;;2.38;1.02;;;22.30;99.90;;;;;;5107316;27;45225;-61
2023/08/04 03:17:16;;;;;;;1.42;1.00;;;22.30;99.90;;;;;;5101491;27;45330;-61
2023/08/04 03:19:43;;;;;;;3.08;1.13;;;22.30;99.90;;;;;;5100935;27;45300;-61
2023/08/04 03:22:11;;;;;;;2.83;1.10;;;22.30;99.90;;;;;;5101796;27;45212;-61
2023/08/04 03:24:37;;;;;;;1.70;1.00;;;22.30;99.90;;;;;;5099975;27;45222;-61
2023/08/04 03:27:05;;;;;;;1.48;1.00;;;22.30;99.90;;;;;;5099621;27;45078;-61
2023/08/04 03:29:31;;;;;;;3.13;1.05;;;22.20;99.90;;;;;;5100147;27;45316;-61
2023/08/04 03:31:58;;;;;;;2.72;1.25;;;22.20;99.90;;;;;;5098430;27;45390;-60
2023/08/04 03:34:25;;;;;;;1.95;0.93;;;22.20;99.90;;;;;;5099986;27;45346;-61
2023/08/04 03:36:52;;;;;;;2.08;1.05;;;22.20;99.90;;;;;;5099501;27;45445;-61
2023/08/04 03:39:20;;;;;;;2.45;0.90;;;22.20;99.90;;;;;;5099864;27;45294;-61
2023/08/04 03:41:47;;;;;;;1.77;1.00;;;22.20;99.90;;;;;;5099455;27;45184;-61
2023/08/04 03:44:13;;;;;;;1.65;1.10;;;22.20;99.90;;;;;;5102568;27;48344;-62
2023/08/04 03:46:40;;;;;;;1.90;1.00;;;22.20;99.90;;;;;;5099056;27;45228;-62
2023/08/04 03:49:07;;;;;;;1.45;0.98;;;22.20;99.90;;;;;;5104251;27;45185;-61
2023/08/04 03:51:34;;;;;;;3.70;1.00;;;22.20;99.90;;;;;;5100394;27;45048;-61
2023/08/04 03:54:00;;;;;;;3.67;1.10;;;22.20;99.90;;;;;;5100711;27;47996;-61
2023/08/04 03:56:28;;;;;;;5.50;1.13;;;22.30;99.90;;;;;;5102333;27;45236;-61
2023/08/04 03:58:55;;;;;;;1.83;1.30;;;22.20;99.90;;;;;;5098966;27;45287;-61
2023/08/04 04:01:22;;;;;;;1.83;1.10;;;22.20;99.90;;;;;;5099150;27;45328;-61
2023/08/04 04:03:49;;;;;;;2.53;1.00;;;22.20;99.90;;;;;;5103784;27;48473;-61
2023/08/04 04:06:16;;;;;;;2.03;1.02;;;22.20;99.90;;;;;;5103957;27;45148;-61
2023/08/04 04:08:43;;;;;;;1.35;1.10;;;22.20;99.90;;;;;;5099963;27;45184;-61
2023/08/04 04:11:10;;;;;;;2.25;1.05;;;22.30;99.90;;;;;;5098925;27;45240;-61
2023/08/04 04:13:40;;;;;;;2.45;1.02;;;22.20;99.90;;;;;;5101062;27;46071;-61
2023/08/04 04:16:07;;;;;;;2.20;1.30;;;22.30;99.90;;;;;;5100702;27;45406;-61
2023/08/04 04:18:33;;;;;;;2.15;1.10;;;22.30;99.90;;;;;;5098531;27;45513;-61
2023/08/04 04:21:00;;;;;;;1.60;1.15;;;22.20;99.90;;;;;;5100558;27;45404;-61
2023/08/04 04:23:27;;;;;;;2.45;1.10;;;22.30;99.90;;;;;;5102399;27;46057;-60
2023/08/04 04:25:54;;;;;;;4.53;1.10;;;22.30;99.90;;;;;;5111969;27;45294;-61
2023/08/04 04:28:20;;;;;;;1.77;1.20;;;22.30;99.90;;;;;;5105729;27;45218;-61
2023/08/04 04:30:50;;;;;;;3.22;1.20;;;22.30;99.90;;;;;;5109636;27;45300;-61
2023/08/04 04:33:17;;;;;;;2.67;1.02;;;22.30;99.90;;;;;;5113872;27;45192;-61
2023/08/04 04:35:49;;;;;;;1.50;1.00;;;22.30;99.90;;;;;;5105891;27;45194;-61
2023/08/04 04:38:15;;;;;;;2.92;1.25;;;22.30;99.90;;;;;;5103897;27;45164;-61
2023/08/04 04:40:42;;;;;;;1.00;0.80;;;22.30;99.90;;;;;;5104029;27;45313;-61
2023/08/04 04:43:09;;;;;;;1.90;1.00;;;22.30;99.90;;;;;;5110160;27;45265;-61
2023/08/04 04:45:36;;;;;;;1.33;1.00;;;22.30;99.90;;;;;;5111779;27;45530;-61
2023/08/04 04:48:04;;;;;;;3.03;0.98;;;22.30;99.90;;;;;;5104512;27;45248;-61
2023/08/04 04:50:31;;;;;;;1.95;1.27;;;22.30;99.90;;;;;;5104939;27;45131;-60
2023/08/04 04:52:58;;;;;;;1.70;1.20;;;22.30;99.90;;;;;;5105615;27;45201;-61
2023/08/04 04:55:24;;;;;;;3.25;1.38;;;22.30;99.90;;;;;;5106980;27;45632;-61
2023/08/04 04:57:51;;;;;;;1.70;1.02;;;22.20;99.90;;;;;;5105399;27;45253;-61
2023/08/04 05:00:18;;;;;;;1.30;1.02;;;22.30;99.90;;;;;;5105269;27;45483;-62
2023/08/04 05:02:45;;;;;;;2.22;1.10;;;22.20;99.90;;;;;;5107505;27;46375;-60
2023/08/04 05:05:13;;;;;;;2.55;1.48;;;22.30;99.90;;;;;;5105626;27;45275;-61
2023/08/04 05:07:40;;;;;;;5.20;1.10;;;22.20;99.90;;;;;;5103474;27;45260;-61
2023/08/04 05:10:07;;;;;;;1.77;1.00;;;22.20;99.90;;;;;;5106840;27;45297;-61
2023/08/04 05:12:34;;;;;;;2.42;1.10;;;22.20;99.90;;;;;;5102422;27;46365;-61
2023/08/04 05:15:01;;;;;;;2.47;1.10;;;22.30;99.90;;;;;;5105594;27;45184;-60
2023/08/04 05:17:28;;;;;;;1.52;1.00;;;22.20;99.90;;;;;;5111078;27;45087;-62
2023/08/04 05:19:54;;;;;;;1.73;1.00;;;22.30;99.90;;;;;;5109411;27;45091;-61
2023/08/04 05:22:22;;;;;;;1.95;1.20;;;22.20;99.90;;;;;;5115321;27;48794;-61
2023/08/04 05:24:49;;;;;;;1.63;0.90;;;22.30;99.90;;;;;;5106759;27;45253;-62
2023/08/04 05:27:16;;;;;;;3.25;1.10;;;22.30;99.90;;;;;;5111900;27;45117;-61
2023/08/04 05:29:43;;;;;;;1.52;1.00;;;22.30;99.90;;;;;;5113601;27;45080;-61
2023/08/04 05:32:09;;;;;;;2.30;1.02;;;22.30;99.90;;;;;;5103949;27;46267;-61
2023/08/04 05:34:36;;;;;;;3.00;1.13;;;22.30;99.90;;;;;;5113008;27;45095;-61
2023/08/04 05:37:03;;;;;;;2.28;1.00;;;22.30;99.90;;;;;;5106760;27;45306;-61
2023/08/04 05:39:33;;;;;;;1.88;1.08;;;22.30;99.90;;;;;;5106945;27;45093;-61
2023/08/04 05:41:59;;;;;;;3.28;1.25;;;22.30;99.90;;;;;;5108598;27;46569;-61
2023/08/04 05:44:26;;;;;;;2.10;1.02;;;22.30;99.90;;;;;;5104815;27;45241;-61
2023/08/04 05:46:53;;;;;;;2.33;1.00;;;22.30;99.90;;;;;;5104899;27;45218;-61
2023/08/04 05:49:20;;;;;;;2.13;1.00;;;22.30;99.90;;;;;;5106162;27;45318;-61
2023/08/04 05:51:47;;;;;;;1.70;1.08;;;22.30;99.90;;;;;;5102569;27;46408;-61
2023/08/04 05:54:13;;;;;;;2.95;1.27;;;22.30;99.90;;;;;;5106923;27;45381;-61
2023/08/04 05:56:41;;;;;;;2.65;1.20;;;22.30;99.90;;;;;;5103402;27;45138;-60
2023/08/04 05:59:08;;;;;;;3.00;1.27;;;22.30;99.90;;;;;;5104878;27;45509;-61
2023/08/04 06:01:35;;;;;;;2.85;1.05;;;22.30;99.90;;;;;;5103839;27;46262;-60
2023/08/04 06:04:02;;;;;;;1.58;1.10;;;22.30;99.90;;;;;;5110780;27;45149;-59
2023/08/04 06:06:29;;;;;;;1.83;1.17;;;22.30;99.90;;;;;;5104768;27;45364;-61
2023/08/04 06:08:56;;;;;;;1.83;1.20;;;22.30;99.90;;;;;;5102836;27;45153;-60
2023/08/04 06:11:22;;;;;;;2.75;1.50;;;22.30;99.90;;;;;;5111078;27;47222;-60
2023/08/04 06:13:51;;;;;;;4.00;1.60;;;22.30;99.90;;;;;;5096007;27;45137;-61
2023/08/04 06:16:17;;;;;;;7.38;2.72;;;22.30;99.90;;;;;;5104024;27;45229;-60
2023/08/04 06:18:44;;;;;;;3.28;1.60;;;22.20;99.90;;;;;;5101939;27;45362;-60
2023/08/04 06:21:11;;;;;;;4.68;1.75;;;22.20;99.90;;;;;;5106708;27;45460;-61
2023/08/04 06:23:41;;;;;;;2.45;1.45;;;22.20;99.90;;;;;;5114483;27;45231;-61
2023/08/04 06:26:08;;;;;;;3.00;1.30;;;22.20;99.90;;;;;;5100999;27;45284;-61
2023/08/04 06:28:35;;;;;;;4.43;1.88;;;22.20;99.90;;;;;;5103553;27;45368;-60
2023/08/04 06:31:03;;;;;;;3.30;1.40;;;22.30;99.90;;;;;;5103075;27;46859;-60
2023/08/04 06:33:30;;;;;;;2.28;1.35;;;22.30;99.90;;;;;;5103916;27;45174;-61
2023/08/04 06:35:57;;;;;;;4.28;1.05;;;22.30;99.90;;;;;;5110013;27;45139;-61
2023/08/04 06:38:24;;;;;;;3.90;1.00;;;22.30;99.90;;;;;;5110452;27;45225;-61
2023/08/04 06:40:51;;;;;;;4.32;1.45;;;22.30;99.90;;;;;;5101390;27;46560;-61
2023/08/04 06:43:18;;;;;;;2.50;1.52;;;22.30;99.90;;;;;;5105271;27;45054;-61
2023/08/04 06:45:44;;;;;;;4.53;1.33;;;22.30;99.90;;;;;;5102689;27;45223;-61
2023/08/04 06:48:12;;;;;;;3.47;1.55;;;22.30;99.90;;;;;;5109434;27;45222;-61
2023/08/04 06:50:39;;;;;;;2.17;1.13;;;22.30;99.90;;;;;;5103538;27;45162;-61
2023/08/04 06:53:06;;;;;;;2.65;1.38;;;22.30;99.90;;;;;;5103341;27;45083;-61
2023/08/04 06:55:33;;;;;;;2.03;1.40;;;22.30;99.90;;;;;;5103735;27;45043;-62
2023/08/04 06:58:00;;;;;;;3.50;1.60;;;22.30;99.90;;;;;;5106079;27;45260;-61
2023/08/04 07:00:27;;;;;;;4.47;1.00;;;22.30;99.90;;;;;;5101800;27;46541;-61
2023/08/04 07:02:54;;;;;;;2.35;1.15;;;22.30;99.90;;;;;;5103214;27;45355;-61
2023/08/04 07:05:22;;;;;;;2.28;1.30;;;22.30;99.90;;;;;;5110917;27;45313;-61
2023/08/04 07:07:51;;;;;;;2.67;1.58;;;22.30;99.90;;;;;;5106081;27;45216;-61
2023/08/04 07:10:18;;;;;;;2.35;1.25;;;22.30;99.90;;;;;;5105067;27;46506;-61
2023/08/04 07:12:44;;;;;;;2.25;1.30;;;22.30;99.90;;;;;;5102621;27;45218;-61
2023/08/04 07:15:11;;;;;;;3.50;1.55;;;22.30;99.90;;;;;;5103481;27;45055;-61
2023/08/04 07:17:38;;;;;;;3.00;1.52;;;22.30;99.90;;;;;;5104354;27;45230;-61
2023/08/04 07:20:06;;;;;;;1.83;1.30;;;22.30;99.90;;;;;;5099358;27;47229;-61
2023/08/04 07:22:34;;;;;;;3.17;1.38;;;22.30;99.90;;;;;;5091393;27;45388;-61
2023/08/04 07:25:01;;;;;;;3.97;1.30;;;22.30;99.90;;;;;;5103281;27;45178;-61
2023/08/04 07:27:28;;;;;;;4.95;1.50;;;22.30;99.90;;;;;;5102989;27;45179;-61
2023/08/04 07:29:54;;;;;;;2.42;1.20;;;22.30;99.90;;;;;;5102253;27;46035;-61
2023/08/04 07:32:21;;;;;;;2.63;1.42;;;22.30;99.90;;;;;;5101868;27;45285;-61
2023/08/04 07:34:48;;;;;;;3.97;1.40;;;22.30;99.90;;;;;;5102637;27;45244;-62
2023/08/04 07:37:15;;;;;;;3.50;1.40;;;22.30;99.90;;;;;;5102723;27;45378;-61
2023/08/04 07:39:43;;;;;;;2.88;1.40;;;22.30;99.90;;;;;;5101908;27;47904;-61
2023/08/04 07:42:10;;;;;;;2.58;1.08;;;22.30;99.90;;;;;;5096867;27;45404;-61
2023/08/04 07:44:36;;;;;;;2.10;1.30;;;22.30;99.90;;;;;;5102868;27;45193;-61
2023/08/04 07:47:03;;;;;;;3.38;1.58;;;22.30;99.90;;;;;;5107389;27;45249;-62
2023/08/04 07:49:30;;;;;;;2.13;1.10;;;22.30;99.90;;;;;;5104925;27;47314;-62
2023/08/04 07:51:57;;;;;;;3.70;1.20;;;22.30;99.90;;;;;;5102894;27;45225;-62
2023/08/04 07:54:25;;;;;;;2.40;1.05;;;22.30;99.90;;;;;;5103584;27;45334;-61
2023/08/04 07:56:53;;;;;;;2.20;1.17;;;22.30;99.90;;;;;;5096209;27;45313;-62
2023/08/04 07:59:19;;;;;;;2.65;1.38;;;22.30;99.90;;;;;;5103730;27;46332;-61
2023/08/04 08:01:46;;;;;;;2.13;1.05;;;22.30;99.90;;;;;;5105414;27;45319;-61
2023/08/04 08:04:13;;;;;;;2.45;1.23;;;22.30;99.90;;;;;;5106469;27;45280;-61
2023/08/04 08:06:40;;;;;;;2.40;1.20;;;22.30;99.90;;;;;;5108601;27;45229;-61
2023/08/04 08:09:08;;;;;;;3.08;1.50;;;22.30;99.90;;;;;;5111203;27;46257;-61
2023/08/04 08:11:35;;;;;;;2.35;1.50;;;22.30;99.90;;;;;;5106034;27;45213;-61
2023/08/04 08:14:03;;;;;;;1.65;1.27;;;22.30;99.90;;;;;;5109730;27;45080;-61
2023/08/04 08:16:30;;;;;;;2.10;1.30;;;22.30;99.90;;;;;;5105677;27;45465;-61
2023/08/04 08:18:56;;;;;;;2.25;1.10;;;22.30;99.90;;;;;;5105495;27;45299;-61
2023/08/04 08:21:23;;;;;;;1.55;1.02;;;22.30;99.90;;;;;;5104155;27;45541;-61
2023/08/04 08:23:50;;;;;;;1.80;1.30;;;22.30;99.90;;;;;;5104641;27;45388;-61
2023/08/04 08:26:17;;;;;;;2.20;1.20;;;22.30;99.90;;;;;;5105076;27;45149;-62
2023/08/04 08:28:44;;;;;;;2.42;1.10;;;22.30;99.90;;;;;;5105294;27;45209;-61
2023/08/04 08:31:12;;;;;;;2.95;1.33;;;22.30;99.90;;;;;;5105073;27;45137;-61
2023/08/04 08:33:38;;;;;;;2.83;1.20;;;22.30;99.90;;;;;;5105919;27;45297;-61
2023/08/04 08:36:06;;;;;;;2.42;1.23;;;22.30;99.90;;;;;;5106177;27;45218;-62
2023/08/04 08:38:33;;;;;;;2.28;1.33;;;22.30;99.90;;;;;;5106438;27;45266;-61
2023/08/04 08:41:00;;;;;;;2.83;1.15;;;22.30;99.90;;;;;;5105609;27;45184;-61
2023/08/04 08:43:27;;;;;;;1.90;1.30;;;22.30;99.90;;;;;;5109221;27;45122;-61
2023/08/04 08:45:56;;;;;;;3.63;1.40;;;22.30;99.90;;;;;;5105777;27;45315;-61
2023/08/04 08:48:24;;;;;;;2.60;1.02;;;22.30;99.90;;;;;;5102826;27;46581;-61
2023/08/04 08:50:59;;;;;;;2.85;1.30;;;22.30;99.90;;;;;;5105297;27;45261;-61
2023/08/04 08:53:29;;;;;;;4.15;1.40;;;22.30;99.90;;;;;;5105971;27;45303;-61
2023/08/04 08:55:55;;;;;;;2.65;1.10;;;22.30;99.90;;;;;;5097895;27;45154;-61
2023/08/04 08:58:23;;;;;;;2.55;1.40;;;22.30;99.90;;;;;;5106052;27;46230;-60
2023/08/04 09:00:50;;;;;;;1.80;1.00;;;22.30;99.90;;;;;;5103475;27;45186;-62
2023/08/04 09:03:18;;;;;;;2.75;1.50;;;22.30;99.90;;;;;;5105877;27;45374;-61
2023/08/04 09:05:46;;;;;;;2.50;1.13;;;22.30;99.90;;;;;;5104469;27;45304;-61
2023/08/04 09:08:12;;;;;;;5.05;1.52;;;22.30;99.90;;;;;;5109338;27;45236;-61
2023/08/04 09:10:39;;;;;;;1.17;1.08;;;22.30;99.90;;;;;;5104219;27;45211;-61
2023/08/04 09:13:09;;;;;;;2.67;1.30;;;22.30;99.90;;;;;;5105499;27;45307;-62
2023/08/04 09:15:46;;;;;;;2.08;1.20;;;22.30;99.90;;;;;;5103992;27;45208;-61
2023/08/04 09:18:24;;;;;;;2.22;1.30;;;22.30;99.90;;;;;;5106843;27;45147;-62
2023/08/04 09:20:59;;;;;;;2.38;1.20;;;22.30;99.90;;;;;;5103528;27;45200;-61
2023/08/04 09:23:26;;;;;;;2.58;1.27;;;22.30;99.90;;;;;;5105330;27;45058;-61
2023/08/04 09:25:53;;;;;;;2.10;0.98;;;22.30;99.90;;;;;;5097310;27;45340;-61
2023/08/04 09:28:20;;;;;;;1.38;1.10;;;22.30;99.90;;;;;;5104837;27;45413;-62
2023/08/04 09:31:02;;;;;;;1.70;1.20;;;22.30;99.90;;;;;;5104486;27;45142;-61
2023/08/04 09:33:29;;;;;;;3.45;1.25;;;22.30;99.90;;;;;;5104072;27;45201;-62
2023/08/04 09:36:04;;;;;;;1.92;1.13;;;22.30;99.90;;;;;;5117188;27;45236;-62
2023/08/04 09:38:31;;;;;;;1.63;1.15;;;22.30;99.90;;;;;;5108895;27;48245;-61
2023/08/04 09:41:01;;;;;;;2.60;1.20;;;22.30;99.90;;;;;;5106161;27;45114;-61
2023/08/04 09:43:29;;;;;;;1.88;1.00;;;22.30;99.90;;;;;;5102889;27;45297;-62
2023/08/04 09:45:58;;;;;;;1.92;1.10;;;22.30;99.90;;;;;;5104162;27;45237;-61
2023/08/04 09:48:28;;;;;;;3.28;1.27;;;22.30;99.90;;;;;;5099573;27;46417;-62
2023/08/04 09:51:11;;;;;;;3.35;1.35;;;22.30;99.90;;;;;;5100244;27;45225;-61
2023/08/04 09:53:45;;;;;;;1.05;0.98;;;22.30;99.90;;;;;;5102532;27;45177;-61
2023/08/04 09:56:14;;;;;;;2.17;1.00;;;22.30;99.90;;;;;;5102728;27;45257;-61
2023/08/04 09:58:42;;;;;;;2.72;1.00;;;22.30;99.90;;;;;;5103368;27;45319;-62
2023/08/04 10:01:09;;;;;;;2.95;1.10;;;22.30;99.90;;;;;;5099888;27;46230;-62
2023/08/04 10:03:37;;;;;;;2.03;1.08;;;22.30;99.90;;;;;;5101162;27;45244;-62
2023/08/04 10:06:04;;;;;;;1.92;1.20;;;22.30;99.90;;;;;;5092659;27;45295;-61
2023/08/04 10:08:33;;;;;;;1.63;1.02;;;22.30;99.90;;;;;;5097990;27;46313;-62
2023/08/04 10:11:00;;;;;;;1.27;0.90;;;22.30;99.90;;;;;;5099122;27;45484;-61
2023/08/04 10:13:30;;;;;;;1.60;1.05;;;22.30;99.90;;;;;;5096029;27;45236;-62
2023/08/04 10:15:59;;;;;;;2.78;1.10;;;22.30;99.90;;;;;;5101408;27;45293;-61
2023/08/04 10:18:26;;;;;;;1.13;0.80;;;22.30;99.90;;;;;;5094938;27;45268;-60
2023/08/04 10:20:54;;;;;;;1.67;1.00;;;22.30;99.90;;;;;;5083710;27;45375;-61
2023/08/04 10:23:20;;;;;;;2.45;1.05;;;22.30;99.90;;;;;;5089207;27;45501;-61
2023/08/04 10:26:02;;;;;;;2.65;1.10;;;22.30;99.90;;;;;;5099337;27;45487;-62
2023/08/04 10:28:31;;;;;;;1.10;0.90;;;22.30;99.90;;;;;;5103026;27;48206;-62
2023/08/04 10:31:04;;;;;;;2.53;1.08;;;22.30;99.90;;;;;;5096147;27;45160;-61
2023/08/04 10:33:31;;;;;;;1.83;1.15;;;22.30;99.90;;;;;;5099572;27;45350;-61
2023/08/04 10:36:07;;;;;;;2.70;1.25;;;22.30;99.90;;;;;;5100543;27;45311;-61
2023/08/04 10:38:45;;;;;;;1.90;0.90;;;22.30;99.90;;;;;;5101863;27;46602;-61
2023/08/04 10:41:14;;;;;;;1.15;1.00;;;22.30;99.90;;;;;;5102524;27;45172;-61
2023/08/04 10:43:41;;;;;;;3.25;0.80;;;22.30;99.90;;;;;;5099650;27;45147;-61
2023/08/04 10:46:11;;;;;;;1.63;1.00;;;22.30;99.90;;;;;;5099754;27;45050;-61
2023/08/04 10:48:40;;;;;;;1.33;0.80;;;22.30;99.90;;;;;;5105073;27;45509;-61
2023/08/04 10:51:08;;;;;;;1.70;1.20;;;22.30;99.90;;;;;;5100498;27;45292;-61
2023/08/04 10:53:35;;;;;;;1.48;1.00;;;22.30;99.90;;;;;;5104134;27;45237;-61
2023/08/04 10:56:07;;;;;;;2.85;0.85;;;22.30;99.90;;;;;;5101059;27;45242;-61
2023/08/04 10:58:36;;;;;;;2.08;1.13;;;22.30;99.90;;;;;;5101622;27;46429;-61
2023/08/04 11:01:03;;;;;;;1.73;0.90;;;22.30;99.90;;;;;;5101044;27;45455;-61
2023/08/04 11:03:33;;;;;;;1.80;0.93;;;22.30;99.90;;;;;;5101074;27;45603;-62
2023/08/04 11:06:00;;;;;;;1.20;0.85;;;22.30;99.90;;;;;;5101790;27;45432;-61
2023/08/04 11:08:27;;;;;;;1.17;0.88;;;22.30;99.90;;;;;;5102528;27;47132;-61
2023/08/04 11:10:55;;;;;;;0.80;0.70;;;22.30;99.90;;;;;;5100459;27;45814;-62
2023/08/04 11:13:23;;;;;;;1.05;0.90;;;22.30;99.90;;;;;;5101593;27;45272;-63
2023/08/04 11:15:53;;;;;;;3.85;1.35;;;22.30;99.90;;;;;;5104424;27;45579;-62
2023/08/04 11:18:22;;;;;;;1.40;0.93;;;22.30;99.90;;;;;;5101997;27;47108;-62
2023/08/04 11:20:49;;;;;;;2.08;0.93;;;22.30;99.90;;;;;;5101630;27;46155;-61
2023/08/04 11:23:23;;;;;;;1.58;1.02;;;22.30;99.90;;;;;;5101371;27;45101;-61
2023/08/04 11:25:50;;;;;;;2.92;0.95;;;22.30;99.90;;;;;;5103253;27;45252;-61
2023/08/04 11:28:16;;;;;;;2.60;1.08;;;22.30;99.90;;;;;;5099868;27;45258;-61
2023/08/04 11:30:43;;;;;;;2.80;0.98;;;22.30;99.90;;;;;;5099347;27;45328;-61
2023/08/04 11:33:11;;;;;;;1.25;1.00;;;22.30;99.90;;;;;;5103390;27;45212;-62
2023/08/04 11:35:39;;;;;;;1.63;0.90;;;22.30;99.90;;;;;;5104868;27;45247;-62
2023/08/04 11:38:06;;;;;;;0.82;0.80;;;22.30;99.90;;;;;;5106049;27;47358;-62
2023/08/04 11:40:35;;;;;;;3.08;1.00;;;22.30;99.90;;;;;;5103252;27;45244;-62
2023/08/04 11:43:02;;;;;;;1.38;0.80;;;22.30;99.90;;;;;;5100547;27;45290;-62
2023/08/04 11:45:32;;;;;;;1.65;1.00;;;22.30;99.90;;;;;;5094822;27;45279;-61
2023/08/04 11:47:59;;;;;;;1.77;1.02;;;22.30;99.90;;;;;;5107818;27;46819;-62
2023/08/04 11:50:27;;;;;;;2.03;0.98;;;22.40;99.90;;;;;;5104513;27;45307;-63
2023/08/04 11:52:54;;;;;;;1.13;0.93;;;22.40;99.90;;;;;;5105788;27;45314;-61
2023/08/04 11:55:21;;;;;;;1.58;0.98;;;22.30;99.90;;;;;;5104242;27;45311;-61
2023/08/04 11:57:50;;;;;;;1.08;0.70;;;22.40;99.90;;;;;;5105058;27;46191;-62
2023/08/04 12:00:17;;;;;;;1.13;0.70;;;22.30;99.90;;;;;;5106278;27;45106;-61
2023/08/04 12:02:57;;;;;;;2.95;0.90;;;22.40;99.90;;;;;;5104690;27;45153;-61
2023/08/04 12:05:31;;;;;;;1.83;0.95;;;22.40;99.90;;;;;;5104260;27;45245;-62
2023/08/04 12:07:58;;;;;;;1.90;0.80;;;22.40;99.90;;;;;;5101848;27;46464;-62
2023/08/04 12:10:26;;;;;;;2.58;0.75;;;22.40;99.90;;;;;;5104294;27;45344;-62
2023/08/04 12:12:53;;;;;;;0.80;0.80;;;22.40;99.90;;;;;;5107343;27;45131;-62
2023/08/04 12:15:20;;;;;;;1.38;1.00;;;22.40;99.90;;;;;;5102739;27;45427;-62
2023/08/04 12:17:46;;;;;;;1.17;0.80;;;22.40;99.90;;;;;;5104050;27;46057;-61
2023/08/04 12:20:14;;;;;;;1.17;0.70;;;22.40;99.90;;;;;;5103718;27;45235;-61
2023/08/04 12:22:44;;;;;;;1.30;1.05;;;22.40;99.90;;;;;;5102521;27;45077;-62
2023/08/04 12:25:12;;;;;;;2.05;1.23;;;22.40;99.90;;;;;;5104023;27;45078;-62
2023/08/04 12:27:39;;;;;;;1.40;0.75;;;22.40;99.90;;;;;;5102751;27;47333;-61
2023/08/04 12:30:07;;;;;;;0.70;0.68;;;22.40;99.90;;;;;;5104382;27;45285;-61
2023/08/04 12:32:33;;;;;;;0.98;0.80;;;22.40;99.90;;;;;;5102615;27;45389;-62
2023/08/04 12:35:00;;;;;;;1.17;0.80;;;22.40;99.90;;;;;;5104188;27;45264;-62
2023/08/04 12:37:27;;;;;;;1.00;0.90;;;22.40;99.90;;;;;;5105787;27;45307;-62
2023/08/04 12:39:55;;;;;;;1.05;0.75;;;22.40;99.90;;;;;;5105472;27;45246;-62
2023/08/04 12:42:22;;;;;;;2.22;0.90;;;22.40;99.90;;;;;;5106249;27;45049;-61
2023/08/04 12:44:49;;;;;;;1.67;0.80;;;22.40;99.90;;;;;;5109138;27;45131;-61
2023/08/04 12:47:16;;;;;;;1.23;0.77;;;22.40;99.90;;;;;;5106183;27;48668;-62
2023/08/04 12:49:43;;;;;;;1.92;1.02;;;22.40;99.90;;;;;;5104572;27;45291;-61